Time;durP1;ratioP1;P1;durP2;ratioP2;P2;SDS_P1;SDS_P2;PMS_P1;PMS_P2;Temp;Humidity;BMP_temperature;BMP_pressure;BME280_temperature;BME280_humidity;BME280_pressure;Samples;Min_cycle;Max_cycle;Signal;HPM_P1;HPM_P2
2021/11/23 00:01:05;;;;;;;9.73;5.80;;;4.30;99.90;;;;;;4975714;28;20217;-77
2021/11/23 00:03:30;;;;;;;8.30;4.63;;;4.30;99.90;;;;;;4975895;28;20538;-78
2021/11/23 00:05:56;;;;;;;8.45;5.32;;;4.00;99.90;;;;;;4975696;28;20190;-78
2021/11/23 00:08:22;;;;;;;7.03;5.75;;;4.00;99.90;;;;;;4976667;28;20170;-77
2021/11/23 00:10:48;;;;;;;5.47;4.88;;;4.00;99.90;;;;;;4976047;28;20170;-78
2021/11/23 00:13:16;;;;;;;6.07;4.63;;;3.90;99.90;;;;;;4976367;28;20560;-77
2021/11/23 00:15:42;;;;;;;7.47;4.93;;;3.90;99.90;;;;;;4976332;28;20190;-77
2021/11/23 00:18:11;;;;;;;7.95;5.03;;;3.80;99.90;;;;;;4976121;28;20166;-78
2021/11/23 00:20:37;;;;;;;7.32;5.40;;;3.80;99.90;;;;;;4976003;28;20689;-78
2021/11/23 00:23:03;;;;;;;8.60;4.43;;;3.90;99.90;;;;;;4975828;28;20201;-77
2021/11/23 00:25:30;;;;;;;13.32;5.03;;;3.80;99.90;;;;;;4975848;28;20219;-78
2021/11/23 00:27:56;;;;;;;7.35;5.25;;;3.60;99.90;;;;;;4975817;28;20198;-78
2021/11/23 00:30:24;;;;;;;7.18;4.90;;;3.60;99.90;;;;;;4975780;28;20249;-77
2021/11/23 00:32:49;;;;;;;4.90;4.40;;;3.50;99.90;;;;;;4975623;28;20170;-78
2021/11/23 00:35:16;;;;;;;12.23;4.97;;;3.50;99.90;;;;;;4974485;28;20198;-78
2021/11/23 00:37:46;;;;;;;10.75;4.97;;;3.60;99.90;;;;;;4974229;28;20173;-77
2021/11/23 00:40:12;;;;;;;12.25;4.80;;;3.50;99.90;;;;;;4975720;28;20177;-78
2021/11/23 00:42:38;;;;;;;20.42;5.25;;;3.60;99.90;;;;;;4975770;28;20310;-78
2021/11/23 00:45:05;;;;;;;7.95;5.03;;;3.70;99.90;;;;;;4975304;28;20638;-77
2021/11/23 00:47:31;;;;;;;5.85;4.72;;;3.60;99.90;;;;;;4975410;28;20209;-77
2021/11/23 00:49:56;;;;;;;5.18;4.68;;;3.50;99.90;;;;;;4975123;28;20176;-78
2021/11/23 00:52:22;;;;;;;4.30;3.92;;;3.50;99.90;;;;;;4975152;28;20624;-78
2021/11/23 00:54:48;;;;;;;8.20;3.85;;;3.50;99.90;;;;;;4975118;28;20165;-77
2021/11/23 00:57:13;;;;;;;9.80;5.07;;;3.40;99.90;;;;;;4974783;28;20233;-77
2021/11/23 00:59:39;;;;;;;9.38;4.85;;;3.40;99.90;;;;;;4974908;28;20170;-78
2021/11/23 01:02:05;;;;;;;8.85;4.15;;;3.50;99.90;;;;;;4974976;28;20170;-78
2021/11/23 01:04:32;;;;;;;9.65;5.55;;;3.60;99.90;;;;;;4974917;28;20217;-77
2021/11/23 01:06:58;;;;;;;16.65;6.28;;;3.50;99.90;;;;;;4975016;28;20353;-78
2021/11/23 01:09:24;;;;;;;6.10;4.25;;;3.40;99.90;;;;;;4975039;28;20193;-77
2021/11/23 01:11:50;;;;;;;7.93;5.00;;;3.50;99.90;;;;;;4975158;28;20608;-78
2021/11/23 01:14:16;;;;;;;8.35;4.70;;;3.60;99.90;;;;;;4974956;28;20531;-78
2021/11/23 01:16:44;;;;;;;13.05;4.95;;;3.50;99.90;;;;;;4974709;28;20190;-78
2021/11/23 01:19:11;;;;;;;8.93;4.90;;;3.50;99.90;;;;;;4974952;28;20193;-77
2021/11/23 01:21:37;;;;;;;11.13;5.13;;;3.60;99.90;;;;;;4974793;28;20177;-78
2021/11/23 01:24:05;;;;;;;7.20;4.85;;;3.70;99.90;;;;;;4974850;28;20182;-78
2021/11/23 01:26:31;;;;;;;5.95;4.50;;;3.60;99.90;;;;;;4974661;28;20249;-79
2021/11/23 01:28:57;;;;;;;17.13;4.63;;;3.40;99.90;;;;;;4974831;28;20182;-77
2021/11/23 01:31:22;;;;;;;9.65;4.90;;;3.40;99.90;;;;;;4974471;28;20180;-78
2021/11/23 01:33:48;;;;;;;7.30;4.38;;;3.50;99.90;;;;;;4974389;28;20593;-78
2021/11/23 01:36:14;;;;;;;5.25;4.65;;;3.70;99.90;;;;;;4973978;28;20208;-78
2021/11/23 01:38:40;;;;;;;7.93;4.88;;;3.60;99.90;;;;;;4974280;28;20516;-78
2021/11/23 01:41:07;;;;;;;6.20;4.78;;;3.40;99.90;;;;;;4974255;28;20177;-78
2021/11/23 01:43:34;;;;;;;5.05;4.50;;;3.50;99.90;;;;;;4974249;28;20170;-79
2021/11/23 01:45:59;;;;;;;5.40;4.38;;;3.30;99.90;;;;;;4974431;28;20182;-78
2021/11/23 01:48:25;;;;;;;10.50;4.47;;;3.30;99.90;;;;;;4974600;28;20219;-78
2021/11/23 01:50:52;;;;;;;6.40;4.50;;;3.30;99.90;;;;;;4974187;28;20629;-79
2021/11/23 01:53:17;;;;;;;6.35;4.43;;;3.30;99.90;;;;;;4974171;28;20170;-79
2021/11/23 01:55:45;;;;;;;7.28;4.45;;;3.20;99.90;;;;;;4974280;28;20232;-79
2021/11/23 01:58:12;;;;;;;6.88;4.38;;;3.30;99.90;;;;;;4974430;28;20177;-78
2021/11/23 02:00:40;;;;;;;7.72;4.38;;;3.40;99.90;;;;;;4973985;28;20189;-79
2021/11/23 02:03:05;;;;;;;6.50;5.15;;;3.50;99.90;;;;;;4974317;28;20175;-79
2021/11/23 02:05:32;;;;;;;8.68;4.82;;;3.30;99.90;;;;;;4974021;28;20185;-78
2021/11/23 02:07:57;;;;;;;4.88;4.45;;;3.30;99.90;;;;;;4974254;28;20284;-79
2021/11/23 02:10:23;;;;;;;8.75;4.53;;;3.20;99.90;;;;;;4973229;28;20198;-78
2021/11/23 02:12:49;;;;;;;8.07;5.05;;;3.10;99.90;;;;;;4972722;28;20656;-79
2021/11/23 02:15:15;;;;;;;5.38;4.88;;;3.20;99.90;;;;;;4972937;28;20190;-78
2021/11/23 02:17:44;;;;;;;6.75;5.03;;;3.00;99.90;;;;;;4973888;28;20620;-79
2021/11/23 02:20:12;;;;;;;7.05;4.40;;;3.00;99.90;;;;;;4973711;28;20158;-79
2021/11/23 02:22:38;;;;;;;9.68;4.68;;;3.10;99.90;;;;;;4973947;28;20170;-78
2021/11/23 02:25:05;;;;;;;6.88;5.07;;;3.20;99.90;;;;;;4973475;28;20202;-78
2021/11/23 02:27:31;;;;;;;9.85;4.35;;;3.30;99.90;;;;;;4973613;28;20217;-78
2021/11/23 02:29:57;;;;;;;6.13;4.40;;;3.20;99.90;;;;;;4973606;28;20224;-78
2021/11/23 02:32:22;;;;;;;6.85;4.82;;;3.10;99.90;;;;;;4973761;28;20197;-79
2021/11/23 02:34:48;;;;;;;7.15;4.75;;;3.10;99.90;;;;;;4973558;28;20205;-79
2021/11/23 02:37:14;;;;;;;5.45;4.50;;;3.00;99.90;;;;;;4971998;28;20197;-78
2021/11/23 02:39:39;;;;;;;15.70;5.28;;;3.10;99.90;;;;;;4972276;28;20178;-79
2021/11/23 02:42:05;;;;;;;7.95;5.45;;;3.10;99.90;;;;;;4973586;28;20536;-78
2021/11/23 02:44:31;;;;;;;8.52;4.97;;;3.00;99.90;;;;;;4973588;28;20225;-78
2021/11/23 02:46:57;;;;;;;6.30;4.95;;;2.90;99.90;;;;;;4972265;28;20213;-79
2021/11/23 02:49:23;;;;;;;7.20;4.70;;;2.90;99.90;;;;;;4973500;28;20616;-78
2021/11/23 02:51:49;;;;;;;6.57;4.75;;;3.00;99.90;;;;;;4973391;28;20170;-79
2021/11/23 02:54:15;;;;;;;7.30;5.22;;;2.90;99.90;;;;;;4973683;28;20165;-77
2021/11/23 02:56:41;;;;;;;7.18;4.72;;;3.00;99.90;;;;;;4972980;28;20699;-78
2021/11/23 02:59:06;;;;;;;6.90;5.05;;;3.00;99.90;;;;;;4973520;28;20174;-78
2021/11/23 03:01:32;;;;;;;6.07;4.60;;;3.10;99.90;;;;;;4973273;28;20248;-78
2021/11/23 03:03:58;;;;;;;7.90;5.13;;;3.30;99.90;;;;;;4973417;28;20177;-78
2021/11/23 03:06:24;;;;;;;10.93;4.70;;;3.40;99.90;;;;;;4973393;28;20198;-78
2021/11/23 03:08:51;;;;;;;9.27;5.18;;;3.20;99.90;;;;;;4973344;28;20174;-78
2021/11/23 03:11:19;;;;;;;7.80;5.15;;;3.20;99.90;;;;;;4973239;28;20224;-78
2021/11/23 03:13:45;;;;;;;12.05;6.05;;;3.10;99.90;;;;;;4973320;28;20534;-78
2021/11/23 03:16:11;;;;;;;6.63;5.88;;;3.20;99.90;;;;;;4972994;28;20178;-79
2021/11/23 03:18:36;;;;;;;7.43;5.00;;;3.10;99.90;;;;;;4973415;28;20583;-78
2021/11/23 03:21:03;;;;;;;14.32;5.22;;;3.20;99.90;;;;;;4973901;28;20181;-79
2021/11/23 03:23:29;;;;;;;5.80;5.22;;;3.20;99.90;;;;;;4976929;28;20182;-78
2021/11/23 03:25:54;;;;;;;6.53;4.35;;;3.00;99.90;;;;;;4976864;28;20551;-79
2021/11/23 03:28:20;;;;;;;5.28;4.75;;;3.30;99.90;;;;;;4975465;28;20514;-79
2021/11/23 03:30:47;;;;;;;12.55;6.15;;;3.50;99.90;;;;;;4976732;28;20170;-79
2021/11/23 03:33:12;;;;;;;10.50;5.80;;;3.50;99.90;;;;;;4976757;28;20644;-78
2021/11/23 03:35:41;;;;;;;4.38;3.97;;;3.40;99.90;;;;;;4976361;28;20240;-78
2021/11/23 03:38:09;;;;;;;9.65;5.68;;;3.20;99.90;;;;;;4977003;28;20166;-79
2021/11/23 03:40:37;;;;;;;12.35;5.40;;;3.10;99.90;;;;;;4976733;28;20188;-78
2021/11/23 03:43:04;;;;;;;6.20;4.88;;;3.00;99.90;;;;;;4976883;28;20692;-79
2021/11/23 03:45:30;;;;;;;6.57;5.43;;;3.00;99.90;;;;;;4976273;28;20286;-79
2021/11/23 03:47:56;;;;;;;5.72;4.75;;;2.90;99.90;;;;;;4977025;28;20209;-80
2021/11/23 03:50:22;;;;;;;12.02;5.13;;;2.90;99.90;;;;;;4976503;28;20192;-79
2021/11/23 03:52:49;;;;;;;9.43;5.20;;;3.20;99.90;;;;;;4976681;28;20269;-78
2021/11/23 03:55:17;;;;;;;6.78;5.43;;;3.40;99.90;;;;;;4976712;28;20540;-79
2021/11/23 03:57:47;;;;;;;8.00;5.25;;;3.50;99.90;;;;;;4977014;28;20228;-79
2021/11/23 04:00:16;;;;;;;6.55;5.93;;;3.40;99.90;;;;;;4976526;28;20173;-78
2021/11/23 04:02:43;;;;;;;5.55;5.05;;;3.00;99.90;;;;;;4976449;28;20538;-79
2021/11/23 04:05:10;;;;;;;15.70;5.38;;;3.00;99.90;;;;;;4975973;28;20182;-81
2021/11/23 04:07:39;;;;;;;9.38;5.35;;;3.20;99.90;;;;;;4976156;28;20205;-80
2021/11/23 04:10:06;;;;;;;8.98;5.93;;;3.00;99.90;;;;;;4976029;28;20166;-78
2021/11/23 04:12:31;;;;;;;6.75;5.80;;;2.90;99.90;;;;;;4976070;28;20360;-79
2021/11/23 04:14:57;;;;;;;22.55;5.65;;;3.10;99.90;;;;;;4976034;28;20637;-79
2021/11/23 04:17:23;;;;;;;7.93;5.75;;;3.00;99.90;;;;;;4976025;28;20638;-79
2021/11/23 04:19:48;;;;;;;9.90;6.47;;;2.80;99.90;;;;;;4975889;28;20174;-78
2021/11/23 04:22:14;;;;;;;7.80;4.45;;;3.00;99.90;;;;;;4975595;28;20174;-78
2021/11/23 04:24:40;;;;;;;10.48;5.93;;;3.00;99.90;;;;;;4975565;28;20192;-79
2021/11/23 04:27:05;;;;;;;8.32;5.57;;;2.80;99.90;;;;;;4975728;28;20254;-79
2021/11/23 04:29:31;;;;;;;8.50;5.20;;;2.70;99.90;;;;;;4975625;28;20656;-79
2021/11/23 04:31:57;;;;;;;5.90;5.03;;;2.80;99.90;;;;;;4975369;28;20181;-79
2021/11/23 04:34:23;;;;;;;10.40;5.25;;;2.70;99.90;;;;;;4974812;28;20201;-78
2021/11/23 04:36:49;;;;;;;9.60;6.47;;;2.90;99.90;;;;;;4975665;28;20288;-79
2021/11/23 04:39:14;;;;;;;6.35;5.35;;;2.90;99.90;;;;;;4975723;28;20166;-79
2021/11/23 04:41:41;;;;;;;7.43;5.78;;;2.80;99.90;;;;;;4975392;28;20189;-78
2021/11/23 04:44:07;;;;;;;11.60;5.72;;;2.80;99.90;;;;;;4975208;28;20659;-78
2021/11/23 04:46:33;;;;;;;6.07;5.47;;;2.90;99.90;;;;;;4974980;28;20233;-79
2021/11/23 04:48:59;;;;;;;7.55;5.88;;;3.10;99.90;;;;;;4975263;28;20526;-78
2021/11/23 04:51:25;;;;;;;15.23;5.43;;;3.00;99.90;;;;;;4975372;28;20174;-78
2021/11/23 04:53:51;;;;;;;20.02;5.45;;;3.00;99.90;;;;;;4974244;28;20201;-78
2021/11/23 04:56:17;;;;;;;9.40;6.10;;;3.00;99.90;;;;;;4975293;28;20655;-78
2021/11/23 04:58:43;;;;;;;11.77;5.57;;;3.10;99.90;;;;;;4975494;28;20182;-78
2021/11/23 05:01:09;;;;;;;14.48;6.03;;;3.00;99.90;;;;;;4975319;28;20169;-79
2021/11/23 05:03:34;;;;;;;10.30;6.28;;;3.00;99.90;;;;;;4975477;28;20170;-77
2021/11/23 05:06:00;;;;;;;12.07;5.28;;;3.30;99.90;;;;;;4974748;28;20192;-78
2021/11/23 05:08:25;;;;;;;9.18;6.43;;;3.10;99.90;;;;;;4974881;28;20204;-78
2021/11/23 05:10:51;;;;;;;13.40;5.85;;;3.00;99.90;;;;;;4975153;28;20202;-79
2021/11/23 05:13:17;;;;;;;6.38;5.65;;;3.20;99.90;;;;;;4974770;28;20205;-80
2021/11/23 05:15:43;;;;;;;9.77;6.05;;;3.40;99.90;;;;;;4974602;28;20196;-78
2021/11/23 05:18:08;;;;;;;16.33;5.93;;;3.40;99.90;;;;;;4975194;28;20172;-78
2021/11/23 05:20:34;;;;;;;8.13;6.15;;;3.40;99.90;;;;;;4974895;28;20217;-78
2021/11/23 05:22:59;;;;;;;6.55;5.85;;;3.50;99.90;;;;;;4974904;28;20257;-79
2021/11/23 05:25:25;;;;;;;6.70;5.53;;;3.40;99.90;;;;;;4974776;28;20693;-78
2021/11/23 05:27:51;;;;;;;10.15;6.57;;;3.40;99.90;;;;;;4974535;28;20232;-78
2021/11/23 05:30:17;;;;;;;7.60;6.50;;;3.50;99.90;;;;;;4973801;28;20174;-80
2021/11/23 05:32:43;;;;;;;17.17;6.28;;;3.50;99.90;;;;;;4974441;28;20166;-79
2021/11/23 05:35:10;;;;;;;11.93;6.13;;;3.80;99.90;;;;;;4973394;28;20193;-79
2021/11/23 05:37:36;;;;;;;6.32;5.70;;;3.60;99.90;;;;;;4974619;28;20177;-79
2021/11/23 05:40:04;;;;;;;9.55;5.97;;;3.80;99.90;;;;;;4974417;28;20546;-78
2021/11/23 05:42:29;;;;;;;17.83;6.22;;;4.00;99.90;;;;;;4973999;28;20629;-78
2021/11/23 05:44:55;;;;;;;11.95;6.13;;;4.20;99.90;;;;;;4973740;28;20201;-79
2021/11/23 05:47:21;;;;;;;19.50;8.15;;;4.10;99.90;;;;;;4974090;28;20624;-77
2021/11/23 05:49:46;;;;;;;6.35;5.63;;;3.90;99.90;;;;;;4974506;28;20249;-77
2021/11/23 05:52:12;;;;;;;10.07;6.60;;;4.10;99.90;;;;;;4974253;28;20181;-78
2021/11/23 05:54:38;;;;;;;8.23;5.72;;;4.00;99.90;;;;;;4974349;28;20170;-79
2021/11/23 05:57:04;;;;;;;7.28;5.93;;;3.80;99.90;;;;;;4974004;28;20562;-77
2021/11/23 05:59:29;;;;;;;12.20;6.80;;;4.20;99.90;;;;;;4974072;28;20168;-77
2021/11/23 06:01:55;;;;;;;15.30;6.75;;;4.30;99.90;;;;;;4973879;28;20261;-77
2021/11/23 06:04:21;;;;;;;11.63;6.60;;;4.40;99.90;;;;;;4974075;28;20220;-78
2021/11/23 06:06:47;;;;;;;7.95;6.07;;;4.50;99.90;;;;;;4973494;28;20209;-78
2021/11/23 06:09:13;;;;;;;7.60;5.78;;;4.70;99.90;;;;;;4974054;28;20248;-77
2021/11/23 06:11:39;;;;;;;8.55;5.82;;;4.40;99.90;;;;;;4972747;28;20268;-77
2021/11/23 06:14:04;;;;;;;7.82;5.72;;;4.40;99.90;;;;;;4972648;28;20686;-77
2021/11/23 06:16:32;;;;;;;8.25;6.20;;;4.50;99.90;;;;;;4973365;28;20189;-78
2021/11/23 06:18:58;;;;;;;33.03;8.50;;;4.90;99.90;;;;;;4973772;28;20252;-77
2021/11/23 06:21:26;;;;;;;21.98;7.13;;;4.70;99.90;;;;;;4973554;28;20198;-78
2021/11/23 06:23:53;;;;;;;15.40;6.50;;;5.00;99.90;;;;;;4973558;28;20192;-78
2021/11/23 06:26:19;;;;;;;10.77;6.80;;;5.10;99.90;;;;;;4973495;28;20206;-78
2021/11/23 06:28:45;;;;;;;16.33;7.43;;;5.10;99.90;;;;;;4973512;28;20174;-79
2021/11/23 06:31:11;;;;;;;12.07;6.88;;;5.20;99.90;;;;;;4973765;28;20712;-80
2021/11/23 06:33:37;;;;;;;12.10;6.80;;;5.00;99.90;;;;;;4973449;28;20182;-78
2021/11/23 06:36:02;;;;;;;13.82;6.93;;;5.00;99.90;;;;;;4973151;28;20189;-79
2021/11/23 06:38:28;;;;;;;22.48;7.38;;;5.00;99.90;;;;;;4973439;28;20175;-79
2021/11/23 06:40:54;;;;;;;12.98;7.10;;;5.10;99.90;;;;;;4972999;28;20644;-79
2021/11/23 06:43:19;;;;;;;17.08;7.75;;;5.30;99.90;;;;;;4973080;28;20174;-79
2021/11/23 06:45:45;;;;;;;19.67;6.80;;;5.50;99.90;;;;;;4973072;28;20186;-82
2021/11/23 06:48:11;;;;;;;18.27;8.18;;;5.70;99.90;;;;;;4973221;28;20213;-78
2021/11/23 06:50:38;;;;;;;23.58;7.10;;;5.70;99.90;;;;;;4972563;28;20228;-78
2021/11/23 06:53:06;;;;;;;13.68;6.80;;;5.90;99.90;;;;;;4973022;28;20194;-78
2021/11/23 06:55:31;;;;;;;9.13;7.80;;;6.00;99.90;;;;;;4972676;28;20281;-79
2021/11/23 06:57:58;;;;;;;11.63;7.75;;;6.10;99.90;;;;;;4976913;28;20256;-79
2021/11/23 07:00:24;;;;;;;10.50;7.55;;;6.10;99.90;;;;;;4976332;28;20181;-77
2021/11/23 07:02:50;;;;;;;12.10;6.80;;;6.00;99.90;;;;;;4976717;28;20177;-79
2021/11/23 07:05:16;;;;;;;14.18;7.80;;;6.10;99.90;;;;;;4976712;28;20659;-78
2021/11/23 07:07:42;;;;;;;27.65;7.40;;;6.20;99.90;;;;;;4976730;28;20263;-78
2021/11/23 07:10:11;;;;;;;19.83;7.03;;;5.90;99.90;;;;;;4976890;28;20571;-77
2021/11/23 07:12:37;;;;;;;12.77;7.05;;;6.00;99.90;;;;;;4976397;28;20180;-77
2021/11/23 07:15:04;;;;;;;10.80;6.80;;;5.90;99.90;;;;;;4974889;28;20609;-77
2021/11/23 07:17:33;;;;;;;7.68;6.90;;;5.90;99.90;;;;;;4976448;28;20192;-77
2021/11/23 07:19:59;;;;;;;7.18;6.45;;;5.90;99.90;;;;;;4976438;28;20228;-78
2021/11/23 07:22:24;;;;;;;10.55;6.55;;;6.00;99.90;;;;;;4976572;28;20177;-77
2021/11/23 07:24:50;;;;;;;13.25;7.00;;;6.10;99.90;;;;;;4976224;28;20177;-78
2021/11/23 07:27:16;;;;;;;8.68;6.95;;;6.30;99.90;;;;;;4975646;28;20249;-79
2021/11/23 07:29:42;;;;;;;11.05;8.02;;;6.40;99.90;;;;;;4975867;28;20170;-78
2021/11/23 07:32:08;;;;;;;11.13;6.70;;;6.60;99.90;;;;;;4974568;28;20200;-82
2021/11/23 07:34:34;;;;;;;16.60;8.45;;;6.60;99.90;;;;;;4975124;28;20650;-78
2021/11/23 07:37:00;;;;;;;11.80;7.68;;;6.70;99.90;;;;;;4975712;28;20178;-79
2021/11/23 07:39:28;;;;;;;16.85;7.47;;;6.60;99.90;;;;;;4975879;28;20244;-79
2021/11/23 07:41:55;;;;;;;16.20;7.85;;;6.60;99.90;;;;;;4976433;28;20174;-79
2021/11/23 07:44:21;;;;;;;24.65;7.97;;;6.60;99.90;;;;;;4974658;28;20174;-79
2021/11/23 07:46:47;;;;;;;9.05;7.13;;;6.70;99.90;;;;;;4975915;28;20221;-78
2021/11/23 07:49:12;;;;;;;30.52;8.55;;;6.70;99.90;;;;;;4974196;28;20530;-78
2021/11/23 07:51:39;;;;;;;19.17;7.13;;;6.60;99.90;;;;;;4975743;28;20170;-77
2021/11/23 07:54:05;;;;;;;18.70;7.63;;;6.50;99.90;;;;;;4974921;28;20177;-84
2021/11/23 07:56:32;;;;;;;20.58;8.30;;;6.60;99.90;;;;;;4974085;28;20193;-79
2021/11/23 07:58:58;;;;;;;15.10;8.13;;;6.60;99.90;;;;;;4973840;28;20269;-78
2021/11/23 08:01:24;;;;;;;15.60;8.30;;;6.70;99.90;;;;;;4976053;28;20169;-80
2021/11/23 08:03:49;;;;;;;17.65;8.45;;;6.70;99.90;;;;;;4975813;28;20174;-77
2021/11/23 08:06:15;;;;;;;18.67;7.97;;;6.80;99.90;;;;;;4974985;28;20260;-78
2021/11/23 08:08:42;;;;;;;17.88;9.07;;;6.80;99.90;;;;;;4975398;28;20555;-78
2021/11/23 08:11:08;;;;;;;21.65;8.10;;;7.00;99.90;;;;;;4975913;28;20162;-77
2021/11/23 08:13:34;;;;;;;16.77;8.48;;;7.20;99.90;;;;;;4976303;28;20166;-77
2021/11/23 08:16:03;;;;;;;29.58;8.55;;;7.30;99.90;;;;;;4975956;28;20208;-80
2021/11/23 08:18:30;;;;;;;18.23;10.38;;;7.10;99.90;;;;;;4976018;28;20660;-78
2021/11/23 08:20:57;;;;;;;23.20;11.02;;;6.80;99.90;;;;;;4975643;28;20190;-78
2021/11/23 08:23:22;;;;;;;10.23;8.40;;;6.90;99.90;;;;;;4974435;28;20592;-82
2021/11/23 08:25:48;;;;;;;18.95;10.23;;;6.80;99.90;;;;;;4976425;28;20190;-77
2021/11/23 08:28:14;;;;;;;14.68;9.27;;;6.90;99.90;;;;;;4975413;28;20297;-78
2021/11/23 08:30:40;;;;;;;12.40;10.18;;;6.90;99.90;;;;;;4975749;28;20193;-79
2021/11/23 08:33:07;;;;;;;19.73;10.10;;;7.10;99.90;;;;;;4975938;28;20256;-78
2021/11/23 08:35:32;;;;;;;18.30;9.68;;;7.20;99.90;;;;;;4975484;28;20190;-79
2021/11/23 08:37:58;;;;;;;19.40;9.20;;;7.20;99.90;;;;;;4972739;28;20166;-82
2021/11/23 08:40:24;;;;;;;18.25;8.18;;;7.20;99.90;;;;;;4954385;28;20171;-78
2021/11/23 08:42:51;;;;;;;18.90;8.65;;;7.10;99.90;;;;;;4955082;28;20170;-78
2021/11/23 08:45:18;;;;;;;13.63;10.07;;;7.20;99.90;;;;;;4956013;28;20194;-78
2021/11/23 08:47:44;;;;;;;13.77;10.93;;;7.40;99.90;;;;;;4956127;28;20225;-79
2021/11/23 08:50:11;;;;;;;18.40;11.25;;;7.40;99.90;;;;;;4955939;28;20529;-79
2021/11/23 08:52:37;;;;;;;22.73;10.52;;;7.60;99.90;;;;;;4955986;28;20250;-79
2021/11/23 08:55:05;;;;;;;21.40;9.75;;;7.80;99.90;;;;;;4954336;28;20191;-78
2021/11/23 08:57:31;;;;;;;17.65;11.45;;;7.60;99.90;;;;;;4956119;28;20206;-79
2021/11/23 09:00:10;;;;;;;22.50;10.45;;;7.80;99.90;;;;;;4955972;28;20775;-78
2021/11/23 09:02:38;;;;;;;11.45;8.50;;;7.80;99.90;;;;;;4955737;28;20177;-79
2021/11/23 09:05:06;;;;;;;20.05;9.43;;;7.70;99.90;;;;;;4955886;28;20242;-79
2021/11/23 09:07:32;;;;;;;21.13;9.15;;;7.60;99.90;;;;;;4954586;28;20305;-78
2021/11/23 09:09:57;;;;;;;22.15;8.90;;;7.90;99.90;;;;;;4955992;28;20529;-78
2021/11/23 09:12:23;;;;;;;18.83;8.98;;;7.90;99.90;;;;;;4955455;28;20190;-81
2021/11/23 09:14:49;;;;;;;19.00;10.50;;;7.90;99.90;;;;;;4955491;28;20178;-79
2021/11/23 09:17:15;;;;;;;25.10;9.85;;;7.60;99.90;;;;;;4955616;28;20173;-78
2021/11/23 09:19:40;;;;;;;17.92;10.00;;;7.70;99.90;;;;;;4955009;28;20173;-78
2021/11/23 09:22:06;;;;;;;18.30;10.23;;;7.70;99.90;;;;;;4955289;28;20233;-79
2021/11/23 09:24:33;;;;;;;17.67;10.25;;;7.90;99.90;;;;;;4955480;28;20726;-78
2021/11/23 09:26:58;;;;;;;17.83;11.50;;;7.90;99.90;;;;;;4955182;28;20221;-79
2021/11/23 09:29:24;;;;;;;16.73;11.10;;;7.90;99.90;;;;;;4955030;28;20570;-78
2021/11/23 09:31:50;;;;;;;25.42;11.32;;;8.10;99.90;;;;;;4954263;28;20185;-78
2021/11/23 09:34:20;;;;;;;23.00;11.23;;;8.30;99.90;;;;;;4953597;28;20170;-78
2021/11/23 09:36:46;;;;;;;12.50;10.80;;;8.30;99.90;;;;;;4955043;28;20185;-78
2021/11/23 09:39:12;;;;;;;17.67;11.15;;;8.10;99.90;;;;;;4953508;28;20178;-78
2021/11/23 09:41:38;;;;;;;18.30;11.10;;;7.80;99.90;;;;;;4954711;28;20625;-78
2021/11/23 09:44:06;;;;;;;26.52;11.60;;;7.80;99.90;;;;;;4954872;28;20213;-77
2021/11/23 09:46:37;;;;;;;13.80;11.05;;;7.80;99.90;;;;;;4954908;28;20751;-78
2021/11/23 09:49:05;;;;;;;19.67;11.88;;;8.10;99.90;;;;;;4955184;28;20178;-78
2021/11/23 09:51:33;;;;;;;17.50;11.30;;;8.30;99.90;;;;;;4955017;28;20525;-77
2021/11/23 09:54:00;;;;;;;18.08;12.25;;;8.60;99.90;;;;;;4954909;28;20237;-77
2021/11/23 09:56:27;;;;;;;14.60;11.90;;;8.60;99.90;;;;;;4954826;28;20743;-80
2021/11/23 09:58:56;;;;;;;22.38;10.80;;;8.50;99.90;;;;;;4953773;28;20178;-77
2021/11/23 10:01:25;;;;;;;17.95;11.38;;;8.50;99.90;;;;;;4954765;28;20513;-77
2021/11/23 10:03:52;;;;;;;14.40;10.48;;;8.50;99.90;;;;;;4954922;28;20169;-80
2021/11/23 10:06:24;;;;;;;19.05;11.75;;;8.50;99.90;;;;;;4954611;28;20588;-78
2021/11/23 10:08:53;;;;;;;17.17;10.98;;;8.50;99.90;;;;;;4954847;28;20185;-77
2021/11/23 10:11:26;;;;;;;18.50;12.38;;;8.70;99.90;;;;;;4954961;28;20186;-79
2021/11/23 10:14:04;;;;;;;19.08;10.75;;;8.70;99.90;;;;;;4954744;28;20234;-82
2021/11/23 10:16:39;;;;;;;17.02;11.27;;;8.60;99.90;;;;;;4953519;28;20194;-82
2021/11/23 10:19:07;;;;;;;13.15;9.82;;;8.60;99.90;;;;;;4953466;28;20205;-77
2021/11/23 10:21:33;;;;;;;22.33;11.90;;;8.60;99.90;;;;;;4954281;28;20170;-78
2021/11/23 10:23:58;;;;;;;22.58;10.50;;;8.80;99.90;;;;;;4954334;28;20539;-78
2021/11/23 10:26:31;;;;;;;16.58;10.73;;;8.90;99.90;;;;;;4954117;28;20668;-78
2021/11/23 10:29:03;;;;;;;23.25;11.20;;;9.20;99.90;;;;;;4954194;28;20182;-79
2021/11/23 10:31:30;;;;;;;20.50;11.35;;;9.00;99.90;;;;;;4953657;28;20163;-78
2021/11/23 10:34:00;;;;;;;24.33;12.15;;;9.20;99.90;;;;;;4957212;28;20236;-77
2021/11/23 10:36:33;;;;;;;21.27;12.05;;;9.10;99.90;;;;;;4954451;28;20281;-78
2021/11/23 10:39:06;;;;;;;18.48;11.35;;;9.20;99.90;;;;;;4954235;28;20526;-81
2021/11/23 10:41:32;;;;;;;21.63;11.27;;;9.40;99.90;;;;;;4954467;28;20652;-79
2021/11/23 10:43:57;;;;;;;15.35;11.50;;;9.50;99.90;;;;;;4953908;28;20209;-76
2021/11/23 10:46:23;;;;;;;25.10;11.48;;;9.70;99.90;;;;;;4953823;28;20244;-77
2021/11/23 10:48:57;;;;;;;21.45;12.15;;;9.50;99.90;;;;;;4954450;28;20189;-77
2021/11/23 10:51:25;;;;;;;29.10;11.85;;;9.40;99.90;;;;;;4953876;28;20629;-76
2021/11/23 10:53:53;;;;;;;16.17;11.52;;;9.50;99.90;;;;;;4953836;28;20238;-78
2021/11/23 10:56:20;;;;;;;22.15;12.98;;;9.70;99.90;;;;;;4952269;29;20190;-77
2021/11/23 10:58:48;;;;;;;21.65;12.13;;;9.60;99.90;;;;;;4952904;28;20158;-79
2021/11/23 11:01:15;;;;;;;28.65;14.40;;;9.70;99.90;;;;;;4954092;29;20282;-80
2021/11/23 11:03:42;;;;;;;41.10;15.25;;;10.00;99.90;;;;;;4953738;29;20174;-78
2021/11/23 11:06:10;;;;;;;32.17;13.45;;;9.90;99.90;;;;;;4953910;29;20204;-78
2021/11/23 11:08:44;;;;;;;31.10;11.98;;;9.90;99.90;;;;;;4953812;29;20182;-80
2021/11/23 11:11:19;;;;;;;16.27;11.00;;;10.00;99.90;;;;;;4954151;28;20177;-78
2021/11/23 11:13:51;;;;;;;24.90;12.77;;;9.80;99.90;;;;;;4953922;29;20176;-78
2021/11/23 11:16:18;;;;;;;33.67;15.68;;;10.00;99.90;;;;;;4954025;29;20225;-78
2021/11/23 11:19:05;;;;;;;30.35;12.80;;;10.00;99.90;;;;;;4953930;28;20174;-78
2021/11/23 11:21:31;;;;;;;16.30;10.02;;;10.10;99.90;;;;;;4953761;28;20183;-78
2021/11/23 11:24:51;;;;;;;21.40;11.93;;;10.00;99.90;;;;;;4953672;29;20179;-78
2021/11/23 11:27:36;;;;;;;15.63;11.77;;;10.10;99.90;;;;;;4953919;28;20588;-78
2021/11/23 11:30:26;;;;;;;18.35;11.65;;;10.30;99.90;;;;;;4953533;29;20166;-77
2021/11/23 11:33:09;;;;;;;25.23;11.27;;;10.20;99.90;;;;;;4952550;29;20179;-78
2021/11/23 11:35:38;;;;;;;13.05;11.23;;;9.90;99.90;;;;;;4954019;29;20229;-78
2021/11/23 11:38:06;;;;;;;15.65;10.77;;;10.00;99.90;;;;;;4952045;29;20217;-77
2021/11/23 11:40:41;;;;;;;16.63;10.35;;;9.80;99.90;;;;;;4953606;28;20725;-82
2021/11/23 11:43:09;;;;;;;15.45;11.02;;;9.90;99.90;;;;;;4954350;28;20506;-78
2021/11/23 11:45:51;;;;;;;26.48;10.98;;;9.80;99.90;;;;;;4957452;28;20226;-79
2021/11/23 11:48:32;;;;;;;14.90;9.60;;;9.60;99.90;;;;;;4957344;28;20245;-78
2021/11/23 11:51:04;;;;;;;19.45;11.35;;;9.60;99.90;;;;;;4971978;28;20199;-78
2021/11/23 11:53:36;;;;;;;19.38;9.85;;;9.90;99.90;;;;;;4957246;29;20166;-78
2021/11/23 11:56:03;;;;;;;20.60;10.15;;;10.00;99.90;;;;;;4957056;29;20209;-78
2021/11/23 11:58:57;;;;;;;19.85;10.80;;;9.90;99.90;;;;;;4956899;29;20723;-78
2021/11/23 12:01:29;;;;;;;11.00;9.10;;;9.90;99.90;;;;;;4956267;28;20261;-78
2021/11/23 12:04:10;;;;;;;16.10;9.73;;;9.80;99.90;;;;;;4956922;29;20178;-79
2021/11/23 12:06:53;;;;;;;29.75;11.63;;;9.90;99.90;;;;;;4957503;28;20276;-78
2021/11/23 12:09:40;;;;;;;28.08;13.48;;;10.10;99.90;;;;;;4956580;28;20182;-78
2021/11/23 12:12:08;;;;;;;23.35;12.27;;;10.10;99.90;;;;;;4956759;29;20174;-80
2021/11/23 12:14:50;;;;;;;19.17;11.93;;;10.40;99.90;;;;;;4956878;29;20181;-79
2021/11/23 12:17:54;;;;;;;25.70;11.13;;;10.20;99.90;;;;;;4956876;29;20167;-80
2021/11/23 12:20:57;;;;;;;24.45;11.93;;;10.20;99.90;;;;;;4956688;29;20181;-79
2021/11/23 12:23:32;;;;;;;38.95;12.23;;;10.60;99.90;;;;;;4956423;29;20174;-79
2021/11/23 12:26:01;;;;;;;41.53;12.45;;;10.60;99.90;;;;;;4956421;29;20190;-81
2021/11/23 12:28:30;;;;;;;21.55;12.40;;;10.60;99.90;;;;;;4956292;28;20293;-79
2021/11/23 12:30:58;;;;;;;23.60;12.77;;;10.80;99.90;;;;;;4956391;29;20301;-77
2021/11/23 12:33:24;;;;;;;28.55;12.35;;;10.80;99.90;;;;;;4956058;29;20263;-79
2021/11/23 12:35:50;;;;;;;19.95;12.55;;;10.90;99.90;;;;;;4955966;29;20265;-79
2021/11/23 12:38:32;;;;;;;23.15;10.68;;;11.00;99.90;;;;;;4955980;28;20174;-77
2021/11/23 12:41:13;;;;;;;20.30;12.38;;;11.00;99.90;;;;;;4956164;29;20178;-77
2021/11/23 12:43:39;;;;;;;18.98;10.60;;;10.90;99.90;;;;;;4956102;29;20665;-78
2021/11/23 12:46:14;;;;;;;27.40;11.98;;;11.00;99.90;;;;;;4956011;28;20187;-77
2021/11/23 12:48:41;;;;;;;23.23;10.55;;;11.00;99.90;;;;;;4956091;29;20205;-77
2021/11/23 12:51:21;;;;;;;20.55;10.90;;;11.00;99.90;;;;;;4956078;28;20688;-77